Time;durP1;ratioP1;P1;durP2;ratioP2;P2;SDS_P1;SDS_P2;PMS_P1;PMS_P2;Temp;Humidity;BMP_temperature;BMP_pressure;BME280_temperature;BME280_humidity;BME280_pressure;Samples;Min_cycle;Max_cycle;Signal;HPM_P1;HPM_P2
2023/04/01 00:01:30;;;;;;;9.10;2.38;;;;;;;7.97;100.00;97414.91;5096120;28;20024;-59
2023/04/01 00:03:56;;;;;;;3.60;1.98;;;;;;;8.00;100.00;97404.47;5095982;28;20031;-59
2023/04/01 00:06:21;;;;;;;11.15;2.00;;;;;;;7.98;100.00;97417.28;5100423;28;20106;-59
2023/04/01 00:08:47;;;;;;;7.90;1.60;;;;;;;7.95;100.00;97409.81;5098011;28;20442;-59
2023/04/01 00:11:12;;;;;;;14.65;2.05;;;;;;;7.96;100.00;97413.28;5094805;28;20088;-58
2023/04/01 00:13:38;;;;;;;7.43;1.90;;;;;;;7.97;100.00;97407.69;5097697;27;20532;-59
2023/04/01 00:16:04;;;;;;;8.02;2.47;;;;;;;7.96;100.00;97408.75;5100247;28;20654;-59
2023/04/01 00:18:29;;;;;;;9.65;2.00;;;;;;;7.98;100.00;97411.16;5097451;28;20154;-59
2023/04/01 00:20:55;;;;;;;9.20;1.92;;;;;;;7.98;100.00;97408.47;5097091;28;20105;-61
2023/04/01 00:23:20;;;;;;;10.70;2.08;;;;;;;7.98;100.00;97409.28;5095394;28;20486;-59
2023/04/01 00:25:47;;;;;;;5.18;1.73;;;;;;;8.00;100.00;97404.47;5092903;28;20175;-60
2023/04/01 00:28:16;;;;;;;5.88;2.03;;;;;;;7.98;100.00;97403.13;5095933;28;20497;-61
2023/04/01 00:30:42;;;;;;;10.98;2.17;;;;;;;8.10;100.00;97397.53;5096357;28;20020;-60
2023/04/01 00:33:07;;;;;;;17.25;2.25;;;;;;;8.08;100.00;97394.31;5095986;28;20028;-60
2023/04/01 00:35:33;;;;;;;9.30;2.00;;;;;;;8.02;100.00;97392.75;5096040;27;20059;-60
2023/04/01 00:37:58;;;;;;;7.90;1.83;;;;;;;7.98;100.00;97390.59;5099491;28;20032;-60
2023/04/01 00:40:32;;;;;;;8.13;1.67;;;;;;;8.08;100.00;97397.00;5094304;28;20403;-60
2023/04/01 00:42:58;;;;;;;9.70;1.98;;;;;;;8.05;100.00;97401.00;5099873;28;20633;-60
2023/04/01 00:45:38;;;;;;;9.15;1.90;;;;;;;8.03;100.00;97391.66;5097179;28;20016;-60
2023/04/01 00:48:07;;;;;;;8.27;1.70;;;;;;;7.97;100.00;97397.00;5093805;28;20016;-60
2023/04/01 00:50:33;;;;;;;8.02;1.73;;;;;;;7.98;100.00;97401.25;5079964;28;20028;-60
2023/04/01 00:52:59;;;;;;;11.18;2.05;;;;;;;7.98;100.00;97406.59;5091471;28;20078;-60
2023/04/01 00:55:24;;;;;;;10.82;1.80;;;;;;;8.03;100.00;97399.66;5099597;28;20050;-60
2023/04/01 00:57:49;;;;;;;9.52;1.50;;;;;;;8.02;100.00;97401.53;5097248;28;20481;-60
2023/04/01 01:00:15;;;;;;;5.00;1.88;;;;;;;8.09;100.00;97398.59;5096388;28;20101;-60
2023/04/01 01:02:41;;;;;;;7.80;1.98;;;;;;;8.09;100.00;97406.59;5092186;28;20031;-60
2023/04/01 01:05:07;;;;;;;6.38;1.52;;;;;;;8.05;100.00;97401.00;5095851;28;20039;-60
2023/04/01 01:07:56;;;;;;;6.07;1.90;;;;;;;8.10;100.00;97402.84;5099759;28;20106;-60
2023/04/01 01:10:33;;;;;;;14.32;1.88;;;;;;;8.04;100.00;97409.25;5078657;28;20016;-60
2023/04/01 01:13:11;;;;;;;10.38;2.17;;;;;;;8.02;100.00;97406.09;5094935;28;20043;-60
2023/04/01 01:15:47;;;;;;;10.48;2.08;;;;;;;7.99;100.00;97402.09;5091358;28;20127;-60
2023/04/01 01:18:59;;;;;;;8.93;1.85;;;;;;;7.97;100.00;97415.69;5096411;28;20233;-59
2023/04/01 01:21:29;;;;;;;8.88;1.92;;;;;;;7.98;100.00;97395.94;5099412;28;20157;-60
2023/04/01 01:24:17;;;;;;;7.22;1.63;;;;;;;7.90;100.00;97404.50;5092812;28;20043;-60
2023/04/01 01:26:45;;;;;;;16.17;2.22;;;;;;;7.86;100.00;97399.97;5095253;28;20038;-60
2023/04/01 01:29:29;;;;;;;9.50;1.80;;;;;;;7.85;100.00;97407.16;5091969;28;20064;-61
2023/04/01 01:32:17;;;;;;;12.07;2.00;;;;;;;7.83;100.00;97393.28;5093305;28;20032;-60
2023/04/01 01:35:13;;;;;;;10.15;1.85;;;;;;;7.79;100.00;97397.59;5092778;28;20565;-60
2023/04/01 01:37:39;;;;;;;6.43;1.83;;;;;;;7.76;100.00;97395.44;5097396;28;20068;-60
2023/04/01 01:40:06;;;;;;;8.77;1.55;;;;;;;7.69;100.00;97397.59;5093719;28;20012;-60
2023/04/01 01:42:32;;;;;;;6.63;2.10;;;;;;;7.73;100.00;97377.31;5093732;28;20028;-60
2023/04/01 01:44:57;;;;;;;5.50;1.67;;;;;;;7.72;100.00;97383.72;5102511;28;20031;-60
2023/04/01 01:47:23;;;;;;;8.20;1.90;;;;;;;7.70;100.00;97383.19;5082719;28;20035;-60
2023/04/01 01:49:49;;;;;;;7.53;1.65;;;;;;;7.71;100.00;97390.09;5100838;28;20402;-60
2023/04/01 01:52:16;;;;;;;12.02;2.20;;;;;;;7.67;100.00;97389.84;5094142;28;20114;-61
2023/04/01 01:54:52;;;;;;;10.68;1.95;;;;;;;7.69;100.00;97381.59;5094751;28;20067;-61
2023/04/01 01:57:23;;;;;;;7.93;1.92;;;;;;;7.67;100.00;97389.06;5102056;28;20497;-59
2023/04/01 01:59:48;;;;;;;8.00;2.03;;;;;;;7.63;100.00;97380.78;5097778;28;20024;-59
2023/04/01 02:02:13;;;;;;;6.00;1.65;;;;;;;7.65;100.00;97385.88;5097609;28;20138;-59
2023/04/01 02:04:40;;;;;;;6.78;1.65;;;;;;;7.65;100.00;97388.53;5077714;28;20176;-59
2023/04/01 02:07:08;;;;;;;11.38;2.05;;;;;;;7.56;100.00;97389.06;5094545;28;20028;-60
2023/04/01 02:09:34;;;;;;;8.05;1.98;;;;;;;7.51;100.00;97375.75;5102803;28;20118;-59
2023/04/01 02:12:03;;;;;;;5.55;1.85;;;;;;;7.51;100.00;97381.09;5081198;28;20092;-59
2023/04/01 02:14:53;;;;;;;6.22;2.17;;;;;;;7.49;100.00;97382.41;5104630;28;20210;-59
2023/04/01 02:17:20;;;;;;;8.48;2.10;;;;;;;7.46;100.00;97380.25;5087972;28;20591;-59
2023/04/01 02:19:59;;;;;;;5.45;1.83;;;;;;;7.45;100.00;97382.13;5096135;28;20126;-60
2023/04/01 02:22:29;;;;;;;10.67;1.90;;;;;;;7.45;100.00;97382.13;5095878;28;20020;-59
2023/04/01 02:24:58;;;;;;;13.85;2.33;;;;;;;7.45;100.00;97382.13;5088928;28;20037;-59
2023/04/01 02:27:23;;;;;;;10.35;1.65;;;;;;;7.45;100.00;97382.13;5096904;28;20038;-59
2023/04/01 02:29:49;;;;;;;7.00;1.95;;;;;;;7.50;100.00;97379.47;5076132;28;20023;-59
2023/04/01 02:32:15;;;;;;;5.38;1.58;;;;;;;7.56;100.00;97375.75;5082558;28;20050;-61
2023/04/01 02:34:40;;;;;;;10.20;2.10;;;;;;;7.52;100.00;97385.34;5077726;28;20016;-60
2023/04/01 02:37:05;;;;;;;9.95;2.10;;;;;;;7.53;100.00;97384.25;5091113;28;20601;-61
2023/04/01 02:39:34;;;;;;;11.95;2.15;;;;;;;7.50;100.00;97387.47;5076087;28;20316;-61
2023/04/01 02:41:59;;;;;;;8.30;1.70;;;;;;;7.51;100.00;97381.09;5098370;28;20426;-61
2023/04/01 02:44:25;;;;;;;4.95;1.67;;;;;;;7.56;100.00;97378.41;5099960;28;20497;-61
2023/04/01 02:46:50;;;;;;;7.63;1.80;;;;;;;7.65;100.00;97385.88;5094892;28;20027;-60
2023/04/01 02:49:15;;;;;;;9.02;1.80;;;;;;;7.63;100.00;97390.66;5094241;28;20036;-61
2023/04/01 02:51:41;;;;;;;8.77;1.77;;;;;;;7.58;100.00;97386.13;5100405;28;20026;-60
2023/04/01 02:54:06;;;;;;;2.80;1.60;;;;;;;7.62;100.00;97383.75;5092879;28;20028;-60
2023/04/01 02:56:32;;;;;;;8.82;2.60;;;;;;;7.64;100.00;97384.25;5090263;28;20016;-60
2023/04/01 02:58:57;;;;;;;8.00;1.85;;;;;;;7.65;100.00;97381.31;5096531;28;20035;-60
2023/04/01 03:01:22;;;;;;;6.90;1.63;;;;;;;7.57;100.00;97382.66;5099328;28;20019;-61
2023/04/01 03:03:48;;;;;;;9.52;1.88;;;;;;;7.55;100.00;97376.78;5092229;28;20035;-60
2023/04/01 03:06:14;;;;;;;10.30;1.90;;;;;;;7.60;100.00;97372.53;5098003;28;20024;-61
2023/04/01 03:08:40;;;;;;;9.15;2.10;;;;;;;7.64;100.00;97378.91;5096972;28;20498;-60
2023/04/01 03:11:05;;;;;;;6.35;1.45;;;;;;;7.65;100.00;97392.00;5094707;28;20024;-61
2023/04/01 03:13:31;;;;;;;7.75;1.90;;;;;;;7.64;100.00;97370.91;5097782;28;20028;-58
2023/04/01 03:15:56;;;;;;;4.38;2.03;;;;;;;7.62;100.00;97370.41;5090280;28;20127;-58
2023/04/01 03:18:22;;;;;;;7.93;1.67;;;;;;;7.62;100.00;97365.06;5096232;28;20492;-58
2023/04/01 03:20:47;;;;;;;8.57;1.75;;;;;;;7.67;100.00;97378.41;5099260;28;20035;-61
2023/04/01 03:23:13;;;;;;;6.45;1.73;;;;;;;7.69;100.00;97381.59;5101051;28;20019;-59
2023/04/01 03:25:38;;;;;;;4.13;1.50;;;;;;;7.65;100.00;97375.19;5092754;28;20070;-59
2023/04/01 03:28:04;;;;;;;5.47;1.42;;;;;;;7.68;100.00;97372.00;5093793;28;20031;-58
2023/04/01 03:30:31;;;;;;;6.20;1.30;;;;;;;7.64;100.00;97373.59;5093946;28;20035;-59
2023/04/01 03:32:57;;;;;;;7.25;1.80;;;;;;;7.62;100.00;97375.75;5100003;28;20120;-59
2023/04/01 03:35:22;;;;;;;11.57;1.95;;;;;;;7.63;100.00;97367.47;5096450;28;20031;-59
2023/04/01 03:37:48;;;;;;;5.05;1.10;;;;;;;7.63;100.00;97380.78;5091451;28;20482;-59
2023/04/01 03:40:13;;;;;;;7.68;1.83;;;;;;;7.66;100.00;97379.44;5090948;28;20510;-59
2023/04/01 03:42:39;;;;;;;7.03;1.60;;;;;;;7.70;100.00;97381.31;5093191;28;20079;-60
2023/04/01 03:45:05;;;;;;;10.82;2.03;;;;;;;7.67;100.00;97386.41;5102832;28;20085;-58
2023/04/01 03:47:30;;;;;;;4.47;1.50;;;;;;;7.62;100.00;97378.41;5100964;27;20587;-59
2023/04/01 03:49:55;;;;;;;6.43;1.65;;;;;;;7.67;100.00;97381.06;5101915;28;20032;-59
2023/04/01 03:52:21;;;;;;;3.50;1.27;;;;;;;7.68;100.00;97369.31;5099998;28;20039;-59
2023/04/01 03:54:46;;;;;;;8.43;1.27;;;;;;;7.63;100.00;97383.44;5093792;28;20024;-59
2023/04/01 03:57:12;;;;;;;8.63;1.60;;;;;;;7.72;100.00;97379.19;5098850;28;20100;-58
2023/04/01 03:59:37;;;;;;;1.77;1.20;;;;;;;7.70;100.00;97388.53;5097466;28;20027;-59
2023/04/01 04:02:03;;;;;;;3.67;1.13;;;;;;;7.68;100.00;97372.00;5100478;28;20119;-59
2023/04/01 04:04:28;;;;;;;3.22;1.52;;;;;;;7.65;100.00;97375.19;5097645;28;20028;-58
2023/04/01 04:06:54;;;;;;;5.93;1.27;;;;;;;7.69;100.00;97386.94;5090304;28;20148;-59
2023/04/01 04:09:19;;;;;;;4.78;1.42;;;;;;;7.71;100.00;97372.25;5096052;28;20022;-59
2023/04/01 04:11:45;;;;;;;4.75;2.05;;;;;;;7.73;100.00;97377.31;5100235;28;20027;-60
2023/04/01 04:14:10;;;;;;;7.00;1.42;;;;;;;7.66;100.00;97379.44;5100295;28;20092;-59
2023/04/01 04:16:36;;;;;;;2.45;1.00;;;;;;;7.68;100.00;97369.31;5089920;28;20024;-59
2023/04/01 04:19:03;;;;;;;4.35;1.50;;;;;;;7.69;100.00;97366.41;5094528;28;20031;-59
2023/04/01 04:21:28;;;;;;;3.13;1.30;;;;;;;7.68;100.00;97372.00;5099121;28;20039;-59
2023/04/01 04:23:53;;;;;;;2.80;1.00;;;;;;;7.67;100.00;97373.06;5101841;28;20032;-58
2023/04/01 04:26:19;;;;;;;3.50;1.00;;;;;;;7.65;100.00;97370.66;5094131;28;20023;-59
2023/04/01 04:28:44;;;;;;;5.53;1.45;;;;;;;7.65;100.00;97380.53;5086221;28;20045;-59
2023/04/01 04:31:10;;;;;;;2.67;1.23;;;;;;;7.70;100.00;97380.53;5095099;28;20059;-58
2023/04/01 04:33:35;;;;;;;2.92;1.40;;;;;;;7.69;100.00;97374.41;5093759;28;20070;-59
2023/04/01 04:36:01;;;;;;;5.28;1.23;;;;;;;7.65;100.00;97375.19;5099035;28;20506;-59
2023/04/01 04:38:27;;;;;;;3.75;1.02;;;;;;;7.66;100.00;97382.13;5092247;28;20054;-59
2023/04/01 04:40:52;;;;;;;2.10;1.00;;;;;;;7.67;100.00;97373.06;5096114;28;20027;-59
2023/04/01 04:43:18;;;;;;;4.35;1.80;;;;;;;7.61;100.00;97382.13;5100644;28;20043;-59
2023/04/01 04:45:44;;;;;;;6.25;1.15;;;;;;;7.60;100.00;97388.53;5094913;28;20399;-59
2023/04/01 04:48:10;;;;;;;5.75;1.48;;;;;;;7.57;100.00;97389.88;5099553;28;20542;-59
2023/04/01 04:50:35;;;;;;;1.88;1.15;;;;;;;7.55;100.00;97376.00;5092464;28;20058;-59
2023/04/01 04:53:01;;;;;;;6.00;1.80;;;;;;;7.52;100.00;97387.22;5096915;28;20024;-59
2023/04/01 04:55:27;;;;;;;3.13;1.33;;;;;;;7.56;100.00;97378.41;5089528;28;20032;-59
2023/04/01 04:57:52;;;;;;;1.85;0.90;;;;;;;7.45;100.00;97387.47;5095535;28;20020;-59
2023/04/01 05:00:18;;;;;;;6.57;1.33;;;;;;;7.42;100.00;97382.69;5096497;28;20032;-59
2023/04/01 05:02:43;;;;;;;4.20;1.40;;;;;;;7.45;100.00;97387.47;5095919;28;20051;-61
2023/04/01 05:05:10;;;;;;;4.55;1.40;;;;;;;7.52;100.00;97381.88;5093009;28;20040;-60
2023/04/01 05:07:35;;;;;;;3.13;1.25;;;;;;;7.52;100.00;97388.00;5102548;28;20505;-61
2023/04/01 05:10:01;;;;;;;1.30;1.20;;;;;;;7.43;100.00;97386.13;5093972;28;20103;-60
2023/04/01 05:12:26;;;;;;;2.55;1.10;;;;;;;7.41;100.00;97383.72;5099785;28;20036;-60
2023/04/01 05:14:55;;;;;;;3.30;1.38;;;;;;;7.44;100.00;97385.06;5100539;28;20398;-60
2023/04/01 05:17:20;;;;;;;4.32;1.60;;;;;;;7.38;100.00;97381.59;5098080;28;20023;-59
2023/04/01 05:19:45;;;;;;;6.75;1.40;;;;;;;7.39;100.00;97372.56;5100997;28;20095;-60
2023/04/01 05:22:11;;;;;;;3.45;1.20;;;;;;;7.44;100.00;97380.53;5103945;28;20036;-60
2023/04/01 05:24:36;;;;;;;5.15;1.60;;;;;;;7.47;100.00;97373.88;5104349;28;20846;-60
2023/04/01 05:27:02;;;;;;;4.40;1.13;;;;;;;7.37;100.00;97377.34;5103412;28;20024;-60
2023/04/01 05:29:27;;;;;;;3.75;1.25;;;;;;;7.43;100.00;97378.13;5098697;28;20274;-60
2023/04/01 05:31:53;;;;;;;3.03;1.23;;;;;;;7.43;100.00;97386.13;5100545;28;20031;-60
2023/04/01 05:34:18;;;;;;;2.10;1.20;;;;;;;7.40;100.00;97387.47;5102651;28;20043;-59
2023/04/01 05:36:44;;;;;;;3.13;0.88;;;;;;;7.41;100.00;97386.38;5093277;28;20024;-60
2023/04/01 05:39:09;;;;;;;18.67;8.35;;;;;;;7.45;100.00;97392.78;5097569;28;20048;-60
2023/04/01 05:41:35;;;;;;;14.75;7.53;;;;;;;7.47;100.00;97385.34;5094109;28;20038;-60
2023/04/01 05:44:01;;;;;;;4.20;2.30;;;;;;;7.48;100.00;97389.59;5102119;28;20031;-60
2023/04/01 05:46:27;;;;;;;25.75;15.10;;;;;;;7.54;100.00;97390.41;5093796;28;20096;-60
2023/04/01 05:48:52;;;;;;;40.17;23.52;;;;;;;7.51;100.00;97391.75;5098296;28;20059;-60
2023/04/01 05:51:17;;;;;;;1.58;1.35;;;;;;;7.56;100.00;97382.91;5094652;28;20036;-60
2023/04/01 05:53:43;;;;;;;7.97;3.58;;;;;;;7.64;100.00;97386.91;5102131;28;20028;-60
2023/04/01 05:56:09;;;;;;;3.25;1.70;;;;;;;7.62;100.00;97384.53;5095058;28;20054;-61
2023/04/01 05:58:37;;;;;;;8.25;4.35;;;;;;;7.65;100.00;97386.66;5098059;28;20028;-60
2023/04/01 06:01:07;;;;;;;5.78;2.15;;;;;;;7.66;100.00;97382.13;5094793;28;20027;-60
2023/04/01 06:03:33;;;;;;;7.37;3.20;;;;;;;7.65;100.00;97381.31;5098965;28;20058;-59
2023/04/01 06:05:58;;;;;;;4.45;2.10;;;;;;;7.72;100.00;97383.72;5096046;28;20677;-60
2023/04/01 06:08:24;;;;;;;12.63;5.70;;;;;;;7.72;100.00;97383.72;5104429;28;20335;-60
2023/04/01 06:11:13;;;;;;;5.70;2.15;;;;;;;7.71;100.00;97387.44;5100380;28;20089;-59
2023/04/01 06:13:58;;;;;;;35.72;14.07;;;;;;;7.73;100.00;97383.44;5100917;28;20046;-59
2023/04/01 06:16:48;;;;;;;7.22;3.20;;;;;;;7.67;100.00;97389.84;5098689;28;20046;-60
2023/04/01 06:19:35;;;;;;;8.90;4.82;;;;;;;7.73;100.00;97395.97;5099139;28;20024;-59
2023/04/01 06:22:36;;;;;;;4.05;2.72;;;;;;;7.72;100.00;97375.72;5101021;28;20032;-61
2023/04/01 06:25:05;;;;;;;11.40;5.18;;;;;;;7.76;100.00;97398.94;5060969;28;20082;-61
2023/04/01 06:27:40;;;;;;;13.88;6.38;;;;;;;7.81;100.00;97400.75;5087653;28;20064;-58
2023/04/01 06:30:11;;;;;;;5.38;2.00;;;;;;;7.87;100.00;97407.69;5099213;28;20036;-60
2023/04/01 06:32:46;;;;;;;1.73;1.17;;;;;;;7.82;100.00;97406.91;5095899;28;20506;-60
2023/04/01 06:35:31;;;;;;;4.45;2.13;;;;;;;7.86;100.00;97411.44;5100528;27;20032;-60
2023/04/01 06:38:15;;;;;;;10.75;4.15;;;;;;;7.88;100.00;97411.97;5090139;28;20028;-60
2023/04/01 06:41:11;;;;;;;18.05;9.05;;;;;;;7.98;100.00;97417.28;5090878;28;20024;-60
2023/04/01 06:43:52;;;;;;;3.03;1.10;;;;;;;7.97;100.00;97413.03;5100610;28;20080;-60
2023/04/01 06:46:29;;;;;;;7.78;4.85;;;;;;;8.02;100.00;97406.09;5093467;28;20101;-60
2023/04/01 06:49:34;;;;;;;1.55;1.30;;;;;;;8.03;100.00;97434.34;5093453;28;20088;-60
2023/04/01 06:52:06;;;;;;;2.40;1.00;;;;;;;8.02;100.00;97422.88;5095787;28;20389;-60
2023/04/01 06:54:36;;;;;;;5.57;2.17;;;;;;;8.05;100.00;97427.69;5096574;28;20042;-60
2023/04/01 06:57:08;;;;;;;;;;;;;;;8.05;100.00;97429.56;5088990;28;20029;-60
2023/04/01 06:59:34;;;;;;;0.63;0.63;;;;;;;8.09;100.00;97430.63;5099039;28;20293;-60
2023/04/01 07:02:09;;;;;;;4.05;1.42;;;;;;;8.13;100.00;97429.78;5099477;28;20028;-59
2023/04/01 07:04:40;;;;;;;1.38;1.23;;;;;;;8.23;100.00;97436.97;5092985;28;20216;-59
2023/04/01 07:07:12;;;;;;;1.90;0.88;;;;;;;8.28;100.00;97431.63;5094849;28;20504;-60
2023/04/01 07:09:39;;;;;;;1.52;1.10;;;;;;;8.29;100.00;97433.25;5098847;28;20032;-59
2023/04/01 07:12:27;;;;;;;0.82;0.82;;;;;;;8.32;100.00;97432.69;5097338;28;20019;-59
2023/04/01 07:14:53;;;;;;;2.47;1.60;;;;;;;8.35;100.00;97431.34;5089664;28;20404;-59
2023/04/01 07:17:23;;;;;;;0.55;0.55;;;;;;;8.35;100.00;97434.81;5098122;28;20016;-59
2023/04/01 07:19:51;;;;;;;2.60;1.10;;;;;;;8.43;100.00;97439.59;5098570;28;20024;-59
2023/04/01 07:22:35;;;;;;;1.90;1.02;;;;;;;8.53;100.00;97446.00;5097213;28;20055;-60
2023/04/01 07:25:18;;;;;;;1.15;0.90;;;;;;;8.52;100.00;97449.75;5097255;28;20044;-59
2023/04/01 07:27:44;;;;;;;1.08;0.88;;;;;;;8.58;100.00;97451.31;5101181;28;20110;-59
2023/04/01 07:30:20;;;;;;;0.80;0.80;;;;;;;8.61;100.00;97442.75;5095639;28;20032;-59
2023/04/01 07:33:33;;;;;;;1.80;1.00;;;;;;;8.68;100.00;97455.81;5098576;28;20034;-59
2023/04/01 07:36:06;;;;;;;0.93;0.90;;;;;;;8.68;100.00;97461.16;5091394;27;20075;-59
2023/04/01 07:38:59;;;;;;;2.03;0.90;;;;;;;8.72;100.00;97465.69;5099768;28;20111;-59
2023/04/01 07:41:40;;;;;;;1.35;0.77;;;;;;;8.76;100.00;97458.75;5080424;28;20023;-59
2023/04/01 07:44:21;;;;;;;1.20;0.80;;;;;;;8.75;100.00;97469.69;5098812;28;20032;-59
2023/04/01 07:46:54;;;;;;;1.75;0.98;;;;;;;8.85;100.00;97464.31;5097770;28;20023;-59
2023/04/01 07:49:28;;;;;;;0.82;0.80;;;;;;;8.91;100.00;97473.09;5098080;28;20073;-59
2023/04/01 07:52:02;;;;;;;1.10;0.82;;;;;;;8.89;100.00;97472.59;5097812;28;20089;-59
2023/04/01 07:54:39;;;;;;;1.85;0.90;;;;;;;9.07;100.00;97479.97;5092044;28;20076;-59
2023/04/01 07:57:35;;;;;;;2.60;0.90;;;;;;;9.08;100.00;97486.91;5098825;28;20028;-59
2023/04/01 08:00:10;;;;;;;1.27;0.90;;;;;;;9.14;100.00;97485.81;5092034;28;20633;-60
2023/04/01 08:03:00;;;;;;;1.58;0.90;;;;;;;9.21;100.00;97489.00;5093787;28;20032;-59
2023/04/01 08:05:33;;;;;;;0.80;0.80;;;;;;;9.31;100.00;97484.66;5095893;28;20028;-59
2023/04/01 08:08:17;;;;;;;1.90;0.90;;;;;;;9.40;100.00;97491.81;5089413;28;20521;-59
2023/04/01 08:11:06;;;;;;;1.40;1.00;;;;;;;9.48;99.27;97485.06;5095292;28;20654;-59
2023/04/01 08:13:38;;;;;;;1.17;0.90;;;;;;;9.57;98.70;97487.97;5096634;28;20020;-59
2023/04/01 08:16:28;;;;;;;0.77;0.77;;;;;;;9.80;97.42;97497.16;5096801;28;20546;-59
2023/04/01 08:19:21;;;;;;;0.97;0.90;;;;;;;9.72;95.89;97499.34;5094854;28;20055;-60
2023/04/01 08:21:52;;;;;;;0.90;0.80;;;;;;;9.94;95.10;97498.13;5098851;28;20039;-60
2023/04/01 08:24:33;;;;;;;1.33;0.93;;;;;;;9.76;95.67;97501.47;5103614;28;20544;-59
2023/04/01 08:26:59;;;;;;;0.80;0.80;;;;;;;9.90;95.07;97497.88;5089821;28;20040;-59
2023/04/01 08:29:38;;;;;;;2.35;0.80;;;;;;;10.01;95.52;97509.31;5076249;28;20031;-59
2023/04/01 08:32:20;;;;;;;3.25;0.80;;;;;;;9.96;94.97;97512.03;5081818;28;20250;-59
2023/04/01 08:34:47;;;;;;;1.70;1.20;;;;;;;10.03;94.45;97512.47;5079530;28;20037;-59
2023/04/01 08:37:19;;;;;;;0.93;0.88;;;;;;;10.07;95.90;97510.84;5091854;28;21402;-59
2023/04/01 08:39:56;;;;;;;1.02;0.90;;;;;;;10.18;95.50;97514.22;5073208;28;20028;-60
2023/04/01 08:42:55;;;;;;;1.77;1.02;;;;;;;10.21;95.58;97518.22;5088150;28;20036;-59
2023/04/01 08:45:38;;;;;;;1.73;1.20;;;;;;;10.05;96.16;97510.31;5089241;28;20106;-59
2023/04/01 08:48:16;;;;;;;1.02;0.93;;;;;;;10.19;95.33;97515.84;5099280;28;20047;-59
2023/04/01 08:50:59;;;;;;;2.90;1.20;;;;;;;10.10;94.50;97512.97;5092046;28;20027;-60
2023/04/01 08:53:52;;;;;;;2.88;0.98;;;;;;;10.06;93.62;97522.66;5090795;28;20058;-59
2023/04/01 08:56:34;;;;;;;1.23;1.10;;;;;;;9.95;93.82;97515.78;5089536;28;20357;-59
2023/04/01 08:59:26;;;;;;;1.10;1.00;;;;;;;9.94;95.25;97519.53;5073983;28;20528;-59
2023/04/01 09:02:38;;;;;;;0.95;0.95;;;;;;;9.94;93.75;97531.03;5090087;28;20032;-59
2023/04/01 09:05:25;;;;;;;3.08;1.10;;;;;;;9.98;92.90;97528.59;5098636;28;20060;-59
2023/04/01 09:08:12;;;;;;;1.13;1.02;;;;;;;10.05;92.00;97531.75;5096276;28;20062;-60
2023/04/01 09:11:05;;;;;;;2.15;1.08;;;;;;;10.07;91.01;97534.16;5090953;28;20398;-59
2023/04/01 09:13:42;;;;;;;1.50;1.10;;;;;;;10.09;90.26;97527.44;5094119;28;20570;-59
2023/04/01 09:16:35;;;;;;;3.50;1.48;;;;;;;10.19;89.80;97537.25;5095086;28;20052;-59
2023/04/01 09:19:18;;;;;;;1.00;1.00;;;;;;;10.23;90.53;97543.63;5090635;28;20040;-59
2023/04/01 09:21:59;;;;;;;1.15;1.05;;;;;;;10.17;90.22;97536.75;5096526;28;20106;-59
2023/04/01 09:24:50;;;;;;;0.82;0.73;;;;;;;10.31;89.77;97544.97;5097983;28;20109;-60
2023/04/01 09:27:46;;;;;;;1.15;1.05;;;;;;;10.45;89.73;97545.09;5092788;28;20032;-59
2023/04/01 09:30:33;;;;;;;1.40;1.30;;;;;;;10.68;89.54;97548.88;5097281;28;20027;-59
2023/04/01 09:33:10;;;;;;;1.20;1.08;;;;;;;10.96;88.14;97549.94;5091914;28;20506;-59
2023/04/01 09:35:50;;;;;;;1.70;1.13;;;;;;;10.93;88.17;97551.31;5098791;28;20020;-59
2023/04/01 09:38:39;;;;;;;1.23;1.10;;;;;;;10.75;88.75;97549.34;5078193;28;20028;-60
2023/04/01 09:41:19;;;;;;;1.77;1.40;;;;;;;10.65;89.51;97547.56;5087155;28;20163;-59
2023/04/01 09:43:53;;;;;;;1.98;1.48;;;;;;;10.51;88.85;97560.84;5077432;28;20063;-59
2023/04/01 09:47:04;;;;;;;21.02;8.25;;;;;;;10.54;88.96;97559.47;5091955;28;20043;-59
2023/04/01 09:49:51;;;;;;;2.60;1.70;;;;;;;10.42;88.76;97562.53;5039108;28;20572;-59
2023/04/01 09:52:42;;;;;;;1.70;1.40;;;;;;;10.56;88.55;97568.03;5035553;28;20033;-59
2023/04/01 09:55:34;;;;;;;2.42;1.40;;;;;;;10.62;87.26;97558.06;5084351;28;20115;-59
2023/04/01 09:58:21;;;;;;;2.53;1.48;;;;;;;10.73;88.55;97565.72;5091155;28;20024;-60
2023/04/01 10:01:22;;;;;;;3.60;1.60;;;;;;;10.91;89.06;97569.56;5098288;28;20080;-59
2023/04/01 10:04:17;;;;;;;2.53;1.70;;;;;;;10.97;87.36;97571.06;5072251;28;20043;-59
2023/04/01 10:07:22;;;;;;;2.30;1.60;;;;;;;11.00;86.90;97573.19;5090229;28;20089;-59
2023/04/01 10:10:15;;;;;;;3.00;1.60;;;;;;;10.94;86.98;97581.59;5090066;28;20485;-59
2023/04/01 10:13:00;;;;;;;3.72;2.03;;;;;;;10.89;87.76;97576.28;5093426;28;20051;-59
2023/04/01 10:15:39;;;;;;;3.42;1.77;;;;;;;11.01;86.10;97588.19;5091545;28;20172;-58
2023/04/01 10:18:30;;;;;;;4.40;1.92;;;;;;;10.88;86.99;97580.03;5096714;28;20406;-60
2023/04/01 10:21:12;;;;;;;3.03;1.88;;;;;;;10.90;86.82;97589.38;5094853;28;20031;-60
2023/04/01 10:23:44;;;;;;;2.13;1.60;;;;;;;10.95;86.45;97592.00;5101891;28;20122;-60
2023/04/01 10:26:16;;;;;;;2.38;1.70;;;;;;;10.97;86.36;97584.47;5090426;28;20032;-59
2023/04/01 10:28:56;;;;;;;2.15;1.65;;;;;;;10.99;85.73;97598.41;5093962;28;20493;-60
2023/04/01 10:31:37;;;;;;;;;;;;;;;11.00;85.59;97591.94;5099809;27;20120;-58
2023/04/01 10:34:24;;;;;;;4.13;1.80;;;;;;;11.02;86.33;97600.50;5091680;27;19938;-58
2023/04/01 10:36:53;;;;;;;2.67;1.75;;;;;;;11.06;86.00;97589.22;5096153;28;20028;-59
2023/04/01 10:39:34;;;;;;;3.03;1.73;;;;;;;11.18;86.42;97597.66;5097323;28;20427;-60
2023/04/01 10:42:05;;;;;;;1.55;1.45;;;;;;;11.35;85.82;97597.97;5093923;28;20500;-60
2023/04/01 10:45:10;;;;;;;3.88;1.70;;;;;;;11.53;82.60;97591.06;5094753;28;20394;-60
2023/04/01 10:48:06;;;;;;;2.40;1.70;;;;;;;11.83;83.24;97589.88;5076169;28;20144;-59
2023/04/01 10:50:56;;;;;;;3.75;1.80;;;;;;;11.82;82.60;97603.56;5093821;28;20252;-59
2023/04/01 10:54:00;;;;;;;2.47;1.70;;;;;;;11.61;82.50;97590.44;5098126;28;21094;-59
2023/04/01 10:56:39;;;;;;;4.13;1.70;;;;;;;11.62;83.10;97591.22;5076819;28;20030;-59
2023/04/01 10:59:25;;;;;;;2.95;1.80;;;;;;;11.72;84.03;97593.75;5095959;28;20074;-59
2023/04/01 11:02:09;;;;;;;3.22;1.70;;;;;;;11.69;83.82;97591.66;5097718;28;20370;-59
2023/04/01 11:04:57;;;;;;;2.63;1.90;;;;;;;11.69;84.92;97594.34;5093796;28;20499;-59
2023/04/01 11:07:40;;;;;;;1.88;1.60;;;;;;;11.77;83.29;97596.38;5098793;28;20027;-59
2023/04/01 11:10:46;;;;;;;3.65;1.80;;;;;;;11.83;84.12;97603.28;5100136;28;20089;-62
2023/04/01 11:13:35;;;;;;;1.85;1.48;;;;;;;11.91;80.88;97598.38;5091053;28;20039;-58
2023/04/01 11:16:26;;;;;;;2.55;1.80;;;;;;;11.75;82.07;97590.50;5093715;28;20048;-61
2023/04/01 11:19:28;;;;;;;2.53;1.77;;;;;;;11.68;80.60;97603.47;5098611;28;20055;-60
2023/04/01 11:22:20;;;;;;;1.70;1.50;;;;;;;11.75;80.40;97611.97;5095302;28;20386;-60
2023/04/01 11:25:05;;;;;;;1.98;1.50;;;;;;;11.61;79.51;97603.84;5089006;28;20406;-58
2023/04/01 11:28:03;;;;;;;1.77;1.40;;;;;;;11.64;79.71;97602.47;5093624;28;20481;-59
2023/04/01 11:30:47;;;;;;;2.53;1.70;;;;;;;11.93;80.53;97612.28;5099782;28;20118;-61
2023/04/01 11:33:21;;;;;;;4.05;2.00;;;;;;;12.01;80.56;97609.75;5101745;28;20035;-60
2023/04/01 11:36:21;;;;;;;3.40;1.60;;;;;;;12.14;80.28;97610.91;5096463;28;20044;-60
2023/04/01 11:39:21;;;;;;;3.88;1.67;;;;;;;12.44;78.97;97617.69;5091728;28;20401;-60
2023/04/01 11:42:07;;;;;;;1.80;1.58;;;;;;;12.49;77.85;97619.50;5099163;28;20482;-60
2023/04/01 11:44:32;;;;;;;4.90;1.77;;;;;;;12.54;78.59;97621.31;5096636;28;20040;-60
2023/04/01 11:47:14;;;;;;;2.05;1.55;;;;;;;12.50;79.94;97618.41;5077810;28;20047;-60
2023/04/01 11:49:42;;;;;;;1.65;1.48;;;;;;;12.26;79.89;97632.75;5080616;28;20213;-59
2023/04/01 11:52:32;;;;;;;1.52;1.42;;;;;;;12.23;79.89;97636.03;5093642;28;20020;-60
2023/04/01 11:55:28;;;;;;;1.70;1.60;;;;;;;11.95;79.99;97628.91;5093950;28;20044;-60
2023/04/01 11:58:12;;;;;;;1.50;1.40;;;;;;;12.16;80.06;97635.59;5094749;28;20028;-60
2023/04/01 12:01:11;;;;;;;2.30;1.60;;;;;;;12.55;80.88;97647.09;5094619;28;20473;-60
2023/04/01 12:03:51;;;;;;;1.92;1.52;;;;;;;12.62;80.68;97637.56;5072014;28;20035;-60
2023/04/01 12:06:35;;;;;;;1.45;1.35;;;;;;;12.74;77.48;97651.31;5093372;28;20154;-60
2023/04/01 12:09:16;;;;;;;2.05;1.58;;;;;;;12.50;77.77;97656.84;5096560;28;20613;-62
2023/04/01 12:12:14;;;;;;;1.65;1.50;;;;;;;12.43;78.78;97650.22;5092174;28;20028;-60